Time;durP1;ratioP1;P1;durP2;ratioP2;P2;SDS_P1;SDS_P2;PMS_P1;PMS_P2;Temp;Humidity;BMP_temperature;BMP_pressure;BME280_temperature;BME280_humidity;BME280_pressure;Samples;Min_cycle;Max_cycle;Signal;HPM_P1;HPM_P2
2022/09/25 00:00:53;;;;;;;0.70;0.70;;;13.80;99.90;14.10;101412.00;;;;5054699;28;20268;-68
2022/09/25 00:03:21;;;;;;;0.80;0.80;;;13.70;99.90;14.50;101409.00;;;;5053879;28;20273;-68
2022/09/25 00:05:48;;;;;;;0.90;0.90;;;13.70;99.90;14.20;101404.00;;;;5055794;28;20169;-68
2022/09/25 00:08:16;;;;;;;0.70;0.70;;;13.70;99.90;14.30;101405.00;;;;5055388;28;20299;-68
2022/09/25 00:10:49;;;;;;;0.70;0.70;;;13.70;99.90;14.30;101366.00;;;;5054704;28;20523;-68
2022/09/25 00:13:18;;;;;;;0.80;0.80;;;13.80;99.90;14.00;101410.00;;;;5053963;28;20537;-68
2022/09/25 00:15:55;;;;;;;0.80;0.80;;;13.60;99.90;14.30;101398.00;;;;5054251;28;20177;-68
2022/09/25 00:21:13;;;;;;;0.90;0.90;;;13.70;99.90;13.70;101416.00;;;;5054522;28;20202;-68
2022/09/25 00:23:40;;;;;;;0.90;0.90;;;13.50;99.90;14.10;101408.00;;;;5054039;28;20180;-68
2022/09/25 00:26:07;;;;;;;1.00;1.00;;;13.40;99.90;13.70;101415.00;;;;5055409;28;20176;-68
2022/09/25 00:28:35;;;;;;;1.00;1.00;;;13.30;99.90;14.10;101415.00;;;;5037205;28;20174;-68
2022/09/25 00:31:03;;;;;;;1.10;1.10;;;13.40;99.90;14.10;101417.00;;;;5054054;28;20199;-68
2022/09/25 00:33:31;;;;;;;1.10;1.10;;;13.40;99.90;14.20;101410.00;;;;5053596;28;20268;-69
2022/09/25 00:36:06;;;;;;;0.97;0.97;;;13.50;99.90;14.10;101418.00;;;;5055160;28;20638;-68
2022/09/25 00:38:34;;;;;;;1.00;1.00;;;13.40;99.90;14.20;101420.00;;;;5053794;28;20588;-69
2022/09/25 00:41:01;;;;;;;0.93;0.93;;;13.40;99.90;14.10;101381.00;;;;5053615;28;20226;-69
2022/09/25 00:43:40;;;;;;;0.90;0.90;;;13.50;99.90;14.00;101418.00;;;;5053712;28;20619;-68
2022/09/25 00:46:33;;;;;;;0.90;0.90;;;13.40;99.90;14.20;101404.00;;;;5054786;28;20179;-68
2022/09/25 00:49:02;;;;;;;0.80;0.80;;;13.50;99.90;13.30;101414.00;;;;5054457;28;20189;-69
2022/09/25 00:51:53;;;;;;;0.80;0.80;;;13.20;99.90;13.80;101414.00;;;;5054645;28;20199;-69
2022/09/25 00:54:29;;;;;;;0.80;0.80;;;13.20;99.90;13.70;101413.00;;;;5054389;28;20185;-68
2022/09/25 00:57:04;;;;;;;1.00;1.00;;;13.20;99.90;13.80;101424.00;;;;5053309;28;20174;-68
2022/09/25 00:59:47;;;;;;;0.90;0.90;;;13.00;99.90;13.00;101411.00;;;;5053255;28;20188;-68
2022/09/25 01:02:25;;;;;;;1.00;1.00;;;12.80;99.90;13.20;101425.00;;;;5036608;28;20287;-68
2022/09/25 01:04:51;;;;;;;1.00;1.00;;;12.70;99.90;13.10;101404.00;;;;5054552;28;20249;-68
2022/09/25 01:07:19;;;;;;;1.10;1.10;;;12.60;99.90;12.90;101422.00;;;;5053201;28;20163;-68
2022/09/25 01:09:45;;;;;;;1.10;1.10;;;12.50;99.90;13.10;101417.00;;;;5053124;28;20212;-68
2022/09/25 01:12:11;;;;;;;1.10;1.10;;;12.40;99.90;12.80;101423.00;;;;5053077;28;20190;-69
2022/09/25 01:14:39;;;;;;;1.10;1.10;;;12.20;99.90;12.90;101427.00;;;;5052952;28;20217;-68
2022/09/25 01:17:36;;;;;;;1.00;1.00;;;12.30;99.90;12.80;101431.00;;;;5036596;28;20213;-68
2022/09/25 01:20:47;;;;;;;1.20;1.20;;;12.30;99.90;12.70;101432.00;;;;5052973;28;20269;-68
2022/09/25 01:24:25;;;;;;;1.00;1.00;;;12.20;99.90;12.90;101437.00;;;;5053110;28;20210;-68
2022/09/25 01:27:16;;;;;;;0.90;0.90;;;12.30;99.90;12.80;101427.00;;;;5015667;28;20179;-68
2022/09/25 01:30:11;;;;;;;1.00;1.00;;;12.30;99.90;12.90;101437.00;;;;5054171;28;20179;-68
2022/09/25 01:32:56;;;;;;;0.90;0.90;;;12.20;99.90;12.90;101426.00;;;;5052511;28;20206;-68
2022/09/25 01:36:02;;;;;;;1.00;1.00;;;12.30;99.90;13.00;101437.00;;;;5053744;28;20174;-68
2022/09/25 01:38:34;;;;;;;1.00;1.00;;;12.20;99.90;13.00;101433.00;;;;5052325;28;20195;-68
2022/09/25 01:41:23;;;;;;;1.10;1.10;;;12.30;99.90;12.80;101437.00;;;;5052462;28;20183;-68
2022/09/25 01:44:41;;;;;;;1.20;1.20;;;12.10;99.90;12.80;101433.00;;;;5042895;28;20206;-68
2022/09/25 01:47:17;;;;;;;1.10;1.10;;;12.10;99.90;12.90;101437.00;;;;5045052;28;20336;-68
2022/09/25 01:50:00;;;;;;;1.27;1.27;;;12.10;99.90;12.70;101436.00;;;;5052338;28;20174;-69
2022/09/25 01:52:43;;;;;;;1.20;1.20;;;12.00;99.90;12.70;101390.00;;;;5052174;28;20187;-69
2022/09/25 01:55:23;;;;;;;1.20;1.20;;;12.00;99.90;12.60;101424.00;;;;5035939;28;20213;-68
2022/09/25 01:58:31;;;;;;;1.03;1.03;;;11.90;99.90;12.50;101423.00;;;;5052561;28;20191;-68
2022/09/25 02:01:21;;;;;;;1.10;1.10;;;11.80;99.90;12.60;101419.00;;;;5046854;28;20198;-68
2022/09/25 02:04:03;;;;;;;1.30;1.30;;;11.80;99.90;12.30;101434.00;;;;5052343;28;20185;-68
2022/09/25 02:06:31;;;;;;;1.30;1.30;;;11.70;99.90;12.60;101426.00;;;;5052826;28;20715;-68
2022/09/25 02:09:09;;;;;;;1.20;1.20;;;11.70;99.90;12.60;101442.00;;;;5052474;28;20173;-68
2022/09/25 02:11:44;;;;;;;1.20;1.20;;;12.00;99.90;13.00;101430.00;;;;5035523;28;20545;-68
2022/09/25 02:14:22;;;;;;;1.57;1.57;;;12.10;99.90;13.00;101430.00;;;;5053177;28;20181;-68
2022/09/25 02:16:54;;;;;;;1.00;1.00;;;12.20;99.90;13.00;101438.00;;;;5051990;28;20225;-69
2022/09/25 02:22:11;;;;;;;1.20;1.20;;;12.20;99.90;12.80;101438.00;;;;5052480;28;20246;-69
2022/09/25 02:24:55;;;;;;;1.20;1.20;;;12.00;99.90;12.70;101433.00;;;;5051987;28;20553;-69
2022/09/25 02:27:23;;;;;;;1.00;1.00;;;12.00;99.90;12.60;101425.00;;;;5051698;28;20186;-69
2022/09/25 02:29:51;;;;;;;1.00;1.00;;;11.90;99.90;12.40;101425.00;;;;5051739;28;20179;-69
2022/09/25 02:32:33;;;;;;;0.90;0.90;;;11.80;99.90;12.90;101436.00;;;;5051495;28;20217;-69
2022/09/25 02:34:59;;;;;;;1.00;1.00;;;12.00;99.90;12.90;101428.00;;;;5053441;28;20622;-70
2022/09/25 02:37:26;;;;;;;0.90;0.90;;;12.20;99.90;12.70;101382.00;;;;5052001;28;20177;-69
2022/09/25 02:39:59;;;;;;;1.00;1.00;;;12.10;99.90;13.00;101363.00;;;;5052136;28;20186;-70
2022/09/25 02:42:43;;;;;;;1.00;1.00;;;12.20;99.90;12.60;101426.00;;;;5053062;28;20204;-69
2022/09/25 02:45:29;;;;;;;1.00;1.00;;;12.00;99.90;12.60;101375.00;;;;5051945;28;20549;-70
2022/09/25 02:48:40;;;;;;;1.17;1.17;;;11.90;99.90;12.30;101420.00;;;;5051810;28;20184;-70
2022/09/25 02:51:32;;;;;;;1.20;1.20;;;11.80;99.90;12.00;101424.00;;;;5053368;28;20267;-70
2022/09/25 02:54:39;;;;;;;1.17;1.17;;;11.60;99.90;12.10;101411.00;;;;5051525;28;20182;-70
2022/09/25 02:57:35;;;;;;;1.20;1.20;;;11.50;99.90;12.20;101381.00;;;;5051930;28;20181;-70
2022/09/25 03:00:06;;;;;;;1.20;1.20;;;11.50;99.90;12.00;101419.00;;;;5051918;28;20181;-69
2022/09/25 03:02:34;;;;;;;1.10;1.10;;;11.40;99.90;12.10;101421.00;;;;5052472;28;20275;-70
2022/09/25 03:05:02;;;;;;;1.20;1.20;;;11.30;99.90;12.00;101419.00;;;;5053310;28;20198;-70
2022/09/25 03:08:36;;;;;;;1.20;1.20;;;11.30;99.90;12.10;101382.00;;;;5051716;28;20185;-68
2022/09/25 03:10:17;;;;;;;1.10;1.10;;;11.30;99.90;12.00;101426.00;;;;5051527;28;20218;-69
2022/09/25 03:12:43;;;;;;;1.20;1.20;;;11.30;99.90;12.00;101411.00;;;;5051284;28;20204;-69
2022/09/25 03:15:10;;;;;;;1.10;1.10;;;11.30;99.90;12.00;101420.00;;;;5051400;28;20210;-69
2022/09/25 03:17:38;;;;;;;1.27;1.27;;;11.40;99.90;12.20;101424.00;;;;5051717;28;20172;-70
2022/09/25 03:20:06;;;;;;;1.10;1.10;;;11.40;99.90;12.00;101410.00;;;;5054858;28;20616;-69
2022/09/25 03:22:32;;;;;;;1.40;1.40;;;11.30;99.90;12.00;101407.00;;;;5056121;28;20188;-69
2022/09/25 03:24:58;;;;;;;1.30;1.30;;;11.30;99.90;11.90;101414.00;;;;5058406;28;20195;-69
2022/09/25 03:27:26;;;;;;;1.30;1.30;;;11.20;99.90;11.70;101369.00;;;;5076031;28;20184;-69
2022/09/25 03:29:54;;;;;;;1.30;1.30;;;11.10;99.90;11.90;101421.00;;;;5076809;28;20190;-69
2022/09/25 03:32:21;;;;;;;1.37;1.37;;;11.00;99.90;11.90;101423.00;;;;5075193;28;20316;-69
2022/09/25 03:34:47;;;;;;;1.20;1.20;;;11.10;99.90;11.80;101417.00;;;;5074847;28;20186;-69
2022/09/25 03:37:13;;;;;;;1.10;1.10;;;11.10;99.90;12.00;101426.00;;;;5075384;28;20174;-70
2022/09/25 03:39:39;;;;;;;1.10;1.10;;;11.30;99.90;12.10;101428.00;;;;5074775;28;20542;-68
2022/09/25 03:42:05;;;;;;;1.07;1.07;;;11.40;99.90;11.90;101425.00;;;;5074833;28;20187;-69
2022/09/25 03:44:31;;;;;;;1.10;1.10;;;11.30;99.90;12.40;101432.00;;;;5074713;28;20262;-68
2022/09/25 03:46:57;;;;;;;3.13;2.03;;;11.40;99.90;12.50;101416.00;;;;5075001;28;20200;-69
2022/09/25 03:49:22;;;;;;;1.20;1.20;;;11.70;99.90;12.30;101425.00;;;;5074892;28;20528;-69
2022/09/25 03:51:48;;;;;;;1.30;1.30;;;11.60;99.90;12.50;101427.00;;;;5075870;28;20573;-69
2022/09/25 03:54:14;;;;;;;1.33;1.33;;;11.70;99.90;12.50;101424.00;;;;5057945;28;20180;-69
2022/09/25 03:56:40;;;;;;;1.23;1.23;;;11.80;99.90;12.30;101421.00;;;;5075498;28;20271;-69
2022/09/25 03:59:06;;;;;;;1.20;1.20;;;11.70;99.90;12.30;101425.00;;;;5074580;28;20258;-69
2022/09/25 04:01:32;;;;;;;1.20;1.20;;;11.60;99.90;12.50;101421.00;;;;5075668;28;20223;-69
2022/09/25 04:03:59;;;;;;;1.40;1.40;;;11.60;99.90;12.20;101425.00;;;;5075677;28;20174;-69
2022/09/25 04:06:26;;;;;;;1.40;1.40;;;11.50;99.90;12.20;101409.00;;;;5074727;28;20580;-69
2022/09/25 04:08:53;;;;;;;1.50;1.50;;;11.40;99.90;12.00;101401.00;;;;5074358;28;20199;-69
2022/09/25 04:11:21;;;;;;;1.40;1.40;;;11.30;99.90;12.10;101404.00;;;;5074595;28;20717;-69
2022/09/25 04:13:47;;;;;;;1.47;1.47;;;11.30;99.90;11.90;101415.00;;;;5057655;28;20212;-69
2022/09/25 04:16:15;;;;;;;1.40;1.40;;;11.20;99.90;11.90;101417.00;;;;5074306;28;20186;-69
2022/09/25 04:18:42;;;;;;;1.30;1.30;;;11.10;99.90;11.90;101390.00;;;;5074524;28;20264;-69
2022/09/25 04:21:10;;;;;;;1.30;1.30;;;11.10;99.90;12.00;101414.00;;;;5074352;28;20178;-69
2022/09/25 04:23:38;;;;;;;1.30;1.30;;;11.10;99.90;12.00;101408.00;;;;5074472;28;20660;-69
2022/09/25 04:26:04;;;;;;;1.50;1.50;;;11.20;99.90;11.80;101402.00;;;;5073741;28;20174;-69
2022/09/25 04:28:31;;;;;;;1.40;1.40;;;11.10;99.90;11.90;101398.00;;;;5074438;28;20224;-69
2022/09/25 04:30:58;;;;;;;1.57;1.57;;;11.10;99.90;11.90;101419.00;;;;5075104;28;20211;-68
2022/09/25 04:36:10;;;;;;;1.33;1.33;;;11.10;99.90;11.80;101416.00;;;;5075104;28;20558;-69
2022/09/25 04:38:36;;;;;;;1.40;1.40;;;11.20;99.90;12.20;101413.00;;;;5074923;28;20181;-69
2022/09/25 04:41:02;;;;;;;1.30;1.30;;;11.30;99.90;12.50;101412.00;;;;5075212;28;20227;-69
2022/09/25 04:43:29;;;;;;;1.33;1.33;;;11.50;99.90;12.70;101408.00;;;;5057165;28;20693;-69
2022/09/25 04:46:04;;;;;;;1.20;1.20;;;11.80;99.90;12.80;101408.00;;;;5073824;28;20168;-69
2022/09/25 04:48:31;;;;;;;1.20;1.20;;;11.90;99.90;12.20;101411.00;;;;5073897;28;20582;-69
2022/09/25 04:50:57;;;;;;;1.20;1.20;;;11.80;99.90;12.30;101417.00;;;;5073739;28;20178;-69
2022/09/25 04:53:26;;;;;;;1.10;1.10;;;11.70;99.90;12.30;101414.00;;;;5073285;28;20256;-69
2022/09/25 04:55:55;;;;;;;1.10;1.10;;;11.70;99.90;12.40;101421.00;;;;5073457;28;20178;-69
2022/09/25 04:58:21;;;;;;;1.40;1.40;;;11.60;99.90;12.50;101410.00;;;;5074649;28;20166;-69
2022/09/25 05:00:48;;;;;;;1.20;1.20;;;11.70;99.90;12.10;101409.00;;;;5073414;28;20538;-69
2022/09/25 05:03:14;;;;;;;1.30;1.30;;;11.50;99.90;12.20;101408.00;;;;5074508;28;20216;-69
2022/09/25 05:05:40;;;;;;;1.40;1.40;;;11.40;99.90;12.30;101389.00;;;;5073320;28;20180;-69
2022/09/25 05:08:06;;;;;;;1.37;1.37;;;11.40;99.90;12.10;101356.00;;;;5073264;28;20217;-69
2022/09/25 05:10:38;;;;;;;1.33;1.33;;;11.50;99.90;12.40;101356.00;;;;5073569;28;20183;-69
2022/09/25 05:13:05;;;;;;;1.43;1.43;;;11.70;99.90;12.40;101358.00;;;;5073313;28;20203;-69
2022/09/25 05:15:33;;;;;;;1.40;1.40;;;11.70;99.90;12.00;101397.00;;;;5073120;28;20188;-69
2022/09/25 05:18:01;;;;;;;1.40;1.40;;;11.50;99.90;12.10;101397.00;;;;5073134;28;20184;-69
2022/09/25 05:20:27;;;;;;;1.50;1.50;;;11.50;99.90;12.20;101398.00;;;;5072814;28;20184;-69
2022/09/25 05:22:56;;;;;;;1.40;1.40;;;11.40;99.90;12.30;101397.00;;;;5056154;28;20238;-69
2022/09/25 05:25:24;;;;;;;1.40;1.40;;;11.50;99.90;12.10;101384.00;;;;5073144;28;20175;-69
2022/09/25 05:27:53;;;;;;;1.40;1.40;;;11.40;99.90;12.00;101395.00;;;;5074010;28;20161;-70
2022/09/25 05:30:21;;;;;;;1.23;1.23;;;11.30;99.90;11.80;101386.00;;;;5072746;28;20179;-69
2022/09/25 05:32:49;;;;;;;1.20;1.20;;;11.20;99.90;11.30;101395.00;;;;5072366;28;20245;-69
2022/09/25 05:35:21;;;;;;;1.30;1.30;;;11.00;99.90;12.10;101405.00;;;;5055981;28;20233;-69
2022/09/25 05:37:47;;;;;;;1.20;1.20;;;11.20;99.90;12.10;101406.00;;;;5072614;28;20230;-69
2022/09/25 05:40:17;;;;;;;1.40;1.40;;;11.30;99.90;12.00;101404.00;;;;5072536;28;20219;-69
2022/09/25 05:42:44;;;;;;;1.20;1.20;;;11.30;99.90;12.10;101402.00;;;;5055855;28;20188;-69
2022/09/25 05:45:20;;;;;;;2.07;1.97;;;11.40;99.90;12.10;101404.00;;;;5073651;28;20769;-69
2022/09/25 05:47:46;;;;;;;1.20;1.20;;;11.40;99.90;11.80;101412.00;;;;5072505;28;20171;-69
2022/09/25 05:50:15;;;;;;;1.40;1.40;;;11.30;99.90;11.90;101391.00;;;;5072504;28;20214;-69
2022/09/25 05:52:41;;;;;;;1.30;1.30;;;11.20;99.90;12.10;101393.00;;;;5072113;28;20203;-69
2022/09/25 05:55:09;;;;;;;1.30;1.30;;;11.40;99.90;11.80;101393.00;;;;5072479;28;20177;-69
2022/09/25 05:57:36;;;;;;;1.30;1.30;;;11.30;99.90;11.50;101399.00;;;;5072518;28;20180;-69
2022/09/25 06:00:07;;;;;;;1.40;1.40;;;11.00;99.90;11.50;101399.00;;;;5073485;28;20185;-69
2022/09/25 06:02:33;;;;;;;1.40;1.40;;;10.90;99.90;11.50;101399.00;;;;5073507;28;20607;-69
2022/09/25 06:05:01;;;;;;;1.30;1.30;;;10.90;99.90;11.90;101395.00;;;;5073477;28;20209;-69
2022/09/25 06:07:28;;;;;;;1.30;1.30;;;11.10;99.90;11.50;101405.00;;;;5072066;28;20178;-68
2022/09/25 06:09:54;;;;;;;1.37;1.37;;;11.10;99.90;11.50;101358.00;;;;5072581;28;20254;-69
2022/09/25 06:12:23;;;;;;;1.40;1.40;;;10.90;99.90;11.50;101405.00;;;;5073347;28;20207;-69
2022/09/25 06:14:51;;;;;;;1.20;1.20;;;10.90;99.90;10.80;101400.00;;;;5073481;28;20178;-69
2022/09/25 06:17:17;;;;;;;1.20;1.20;;;10.70;99.90;10.70;101364.00;;;;5072355;28;20207;-69
2022/09/25 06:19:42;;;;;;;1.20;1.20;;;10.50;99.90;10.90;101404.00;;;;5072200;28;20219;-70
2022/09/25 06:22:08;;;;;;;1.40;1.40;;;10.50;99.90;11.30;101409.00;;;;5071776;28;20632;-69
2022/09/25 06:24:34;;;;;;;1.30;1.30;;;10.60;99.90;11.70;101405.00;;;;5072020;28;20638;-68
2022/09/25 06:27:00;;;;;;;1.40;1.40;;;10.80;99.90;11.90;101401.00;;;;5072111;28;20231;-70
2022/09/25 06:29:26;;;;;;;1.27;1.27;;;11.10;99.90;11.20;101401.00;;;;5071852;28;20173;-69
2022/09/25 06:31:52;;;;;;;1.17;1.17;;;11.10;99.90;11.40;101386.00;;;;5073032;28;20205;-70
2022/09/25 06:34:18;;;;;;;1.23;1.23;;;11.00;99.90;11.80;101406.00;;;;5073194;28;20188;-69
2022/09/25 06:36:45;;;;;;;1.20;1.20;;;11.20;99.90;11.90;101411.00;;;;5071650;28;20190;-69
2022/09/25 06:39:11;;;;;;;1.03;1.03;;;11.30;99.90;12.50;101421.00;;;;5073271;28;20171;-69
2022/09/25 06:41:37;;;;;;;1.10;1.10;;;11.60;99.90;12.70;101424.00;;;;5072093;28;20188;-69
2022/09/25 06:44:04;;;;;;;1.20;1.20;;;11.90;99.90;13.00;101426.00;;;;5073005;28;20272;-69
2022/09/25 06:46:30;;;;;;;1.10;1.10;;;12.10;99.90;13.60;101382.00;;;;5054991;28;20197;-69
2022/09/25 06:48:58;;;;;;;1.17;1.17;;;12.50;99.90;13.70;101422.00;;;;5073106;28;20177;-69
2022/09/25 06:51:30;;;;;;;1.20;1.20;;;12.80;99.90;14.10;101424.00;;;;5071478;28;20187;-69
2022/09/25 06:53:56;;;;;;;1.00;1.00;;;13.10;99.90;14.50;101431.00;;;;5074823;28;20197;-69
2022/09/25 06:56:22;;;;;;;0.70;0.70;;;13.50;99.90;15.00;101430.00;;;;5076179;28;20268;-69
2022/09/25 06:58:48;;;;;;;0.40;0.40;;;14.00;99.90;16.00;101441.00;;;;5076114;28;20597;-69
2022/09/25 07:01:14;;;;;;;0.50;0.50;;;14.80;99.90;17.00;101451.00;;;;5077079;28;20272;-69
2022/09/25 07:03:46;;;;;;;0.50;0.50;;;15.60;99.90;17.80;101443.00;;;;5075800;28;20179;-69
2022/09/25 07:06:20;;;;;;;0.70;0.70;;;16.40;99.90;18.60;101435.00;;;;5075691;28;20179;-69
2022/09/25 07:08:47;;;;;;;2.10;2.00;;;17.10;99.90;19.40;101444.00;;;;5059529;28;20196;-69
2022/09/25 07:11:42;;;;;;;3.40;3.30;;;18.00;99.90;20.70;101450.00;;;;5075667;28;20609;-68
2022/09/25 07:14:13;;;;;;;7.20;7.00;;;19.10;99.90;21.40;101476.00;;;;5069253;28;20205;-68
2022/09/25 07:16:39;;;;;;;10.45;10.15;;;19.90;99.90;22.30;101465.00;;;;5076435;28;20209;-68
2022/09/25 07:19:32;;;;;;;10.90;10.60;;;20.70;99.90;23.00;101509.00;;;;5058889;28;20248;-68
2022/09/25 07:22:41;;;;;;;8.60;8.30;;;21.30;99.90;23.70;101534.00;;;;5075516;28;20196;-68
2022/09/25 07:25:12;;;;;;;3.03;2.92;;;22.00;99.90;24.20;101543.00;;;;5075153;28;20189;-69
2022/09/25 07:28:00;;;;;;;0.98;0.98;;;22.50;99.90;24.70;101548.00;;;;5075450;28;20162;-69
2022/09/25 07:30:32;;;;;;;0.40;0.40;;;23.00;99.90;25.10;101554.00;;;;5075685;28;20173;-70
2022/09/25 07:32:58;;;;;;;0.40;0.40;;;23.30;99.90;25.40;101567.00;;;;5075001;28;20200;-70
2022/09/25 07:35:28;;;;;;;0.30;0.30;;;23.70;99.90;25.70;101558.00;;;;5058433;28;20181;-70
2022/09/25 07:37:57;;;;;;;0.30;0.30;;;23.90;99.90;25.40;101571.00;;;;5073656;28;20234;-69
2022/09/25 07:40:26;;;;;;;0.30;0.30;;;23.90;99.90;24.90;101571.00;;;;5066111;28;20632;-70
2022/09/25 07:42:52;;;;;;;0.30;0.30;;;23.50;99.90;23.90;101584.00;;;;5076078;28;20216;-70
2022/09/25 07:45:18;;;;;;;0.40;0.40;;;22.70;99.90;22.80;101587.00;;;;5074898;28;20177;-70
2022/09/25 07:47:46;;;;;;;0.40;0.40;;;22.10;99.90;23.30;101567.00;;;;5074737;28;20169;-70
2022/09/25 07:50:15;;;;;;;0.40;0.40;;;21.90;99.90;23.00;101556.00;;;;5074949;28;20165;-70
2022/09/25 07:52:41;;;;;;;0.30;0.30;;;21.80;99.90;23.40;101556.00;;;;5062406;28;20657;-70
2022/09/25 07:55:07;;;;;;;0.30;0.30;;;21.80;99.90;24.00;101563.00;;;;5063383;28;20178;-70
2022/09/25 07:57:33;;;;;;;0.38;0.38;;;22.20;99.90;24.40;101573.00;;;;5076427;28;20174;-70
2022/09/25 07:59:59;;;;;;;0.30;0.30;;;22.80;99.90;24.80;101569.00;;;;5075824;28;20234;-70
2022/09/25 08:02:25;;;;;;;0.30;0.30;;;23.10;99.90;24.30;101556.00;;;;5074256;28;20536;-70
2022/09/25 08:04:52;;;;;;;0.30;0.30;;;23.20;99.90;24.80;101577.00;;;;5075081;28;20173;-70
2022/09/25 08:07:18;;;;;;;0.20;0.20;;;23.30;99.90;25.30;101565.00;;;;5075675;28;20583;-69
2022/09/25 08:09:44;;;;;;;0.20;0.20;;;23.60;99.90;25.40;101535.00;;;;5074793;28;20174;-70
2022/09/25 08:12:11;;;;;;;2.08;1.95;;;23.80;99.90;24.20;101585.00;;;;5074316;28;20520;-70
2022/09/25 08:14:37;;;;;;;1.30;1.05;;;23.50;99.90;23.70;101582.00;;;;5074649;28;20162;-69
2022/09/25 08:17:21;;;;;;;0.22;0.22;;;22.80;99.90;22.70;101580.00;;;;5074930;28;20196;-70
2022/09/25 08:20:00;;;;;;;0.20;0.20;;;22.50;99.90;23.90;101584.00;;;;5075342;28;20208;-69
2022/09/25 08:22:32;;;;;;;0.20;0.20;;;22.50;99.90;24.50;101540.00;;;;5051229;28;20204;-69
2022/09/25 08:25:06;;;;;;;0.20;0.20;;;22.90;99.90;24.30;101579.00;;;;5074384;28;20558;-69
2022/09/25 08:27:42;;;;;;;0.17;0.17;;;22.90;99.90;24.80;101545.00;;;;5075370;28;20169;-69
2022/09/25 08:30:16;;;;;;;0.52;0.52;;;23.20;99.90;24.30;101585.00;;;;5075327;28;20173;-69
2022/09/25 08:32:45;;;;;;;0.10;0.10;;;23.00;99.90;24.90;101583.00;;;;5073735;28;20238;-69
2022/09/25 08:35:17;;;;;;;0.10;0.10;;;23.40;99.90;24.80;101588.00;;;;5073930;28;20183;-69
2022/09/25 08:37:48;;;;;;;0.10;0.10;;;23.50;99.90;24.20;101601.00;;;;5074004;28;20203;-69
2022/09/25 08:40:26;;;;;;;0.20;0.20;;;23.20;99.90;22.50;101607.00;;;;5073562;28;20271;-69
2022/09/25 08:43:03;;;;;;;0.20;0.20;;;22.40;99.90;22.70;101607.00;;;;5073767;28;20213;-69
2022/09/25 08:51:51;;;;;;;0.20;0.20;;;20.80;99.90;21.40;101581.00;;;;5073863;28;20276;-69
2022/09/25 08:54:30;;;;;;;0.20;0.20;;;20.50;99.90;21.30;101578.00;;;;5057966;28;20181;-68
2022/09/25 08:57:11;;;;;;;0.20;0.20;;;20.80;99.90;21.10;101584.00;;;;5073463;28;20226;-69
2022/09/25 09:00:08;;;;;;;0.17;0.17;;;20.60;99.90;22.10;101582.00;;;;5074586;28;20743;-68
2022/09/25 09:03:12;;;;;;;0.10;0.10;;;20.70;99.90;22.60;101570.00;;;;5070145;28;20224;-68
2022/09/25 09:05:53;;;;;;;0.10;0.10;;;21.30;99.90;22.50;101553.00;;;;5051084;28;20189;-68
2022/09/25 09:08:28;;;;;;;0.10;0.10;;;21.60;99.90;23.40;101573.00;;;;5073219;28;20174;-68
2022/09/25 09:15:16;;;;;;;0.10;0.10;;;21.80;99.90;21.50;101597.00;;;;4986525;28;20586;-68
2022/09/25 09:18:20;;;;;;;0.10;0.10;;;21.60;99.90;22.10;101600.00;;;;4992007;28;20685;-68
2022/09/25 09:21:14;;;;;;;1.13;0.30;;;21.20;99.90;21.60;101604.00;;;;4992780;28;20686;-68
2022/09/25 09:24:30;;;;;;;0.40;0.40;;;21.10;99.90;22.80;101595.00;;;;5069844;28;20225;-68
2022/09/25 09:27:26;;;;;;;0.30;0.30;;;21.40;99.90;22.00;101588.00;;;;5073935;28;20181;-68
2022/09/25 09:33:12;;;;;;;0.30;0.30;;;21.20;99.90;22.40;101583.00;;;;5074245;28;20237;-69
2022/09/25 09:36:05;;;;;;;0.10;0.10;;;21.60;99.90;21.90;101591.00;;;;5063047;28;20193;-69
2022/09/25 09:39:06;;;;;;;0.10;0.10;;;21.40;99.90;23.00;101563.00;;;;5073526;28;20196;-69
2022/09/25 09:42:04;;;;;;;0.15;0.15;;;21.50;99.90;21.40;101569.00;;;;5073561;28;20264;-68
2022/09/25 09:45:12;;;;;;;0.10;0.10;;;21.40;99.90;22.20;101529.00;;;;5031283;28;20238;-68
2022/09/25 09:48:05;;;;;;;0.10;0.10;;;21.20;99.90;21.30;101582.00;;;;5023970;28;20646;-68
2022/09/25 09:51:13;;;;;;;0.10;0.10;;;21.00;99.90;21.00;101597.00;;;;5031536;28;20544;-68
2022/09/25 09:54:22;;;;;;;0.10;0.10;;;20.00;99.90;21.60;101583.00;;;;5031547;28;20186;-68
2022/09/25 09:57:43;;;;;;;0.32;0.20;;;20.50;99.90;21.70;101574.00;;;;5024069;28;20187;-68
2022/09/25 10:00:49;;;;;;;0.10;0.10;;;21.00;99.90;23.30;101553.00;;;;5004772;28;20689;-69
2022/09/25 10:03:36;;;;;;;0.10;0.10;;;21.90;99.90;22.60;101564.00;;;;5030927;28;20709;-69
2022/09/25 10:06:19;;;;;;;0.10;0.10;;;21.70;99.90;21.80;101565.00;;;;5014809;28;20174;-68
2022/09/25 10:09:10;;;;;;;0.10;0.10;;;21.20;99.90;22.20;101572.00;;;;5015432;28;20213;-68
2022/09/25 10:11:42;;;;;;;0.10;0.10;;;21.10;99.90;21.30;101583.00;;;;5015178;28;20175;-68
2022/09/25 10:14:19;;;;;;;0.10;0.10;;;20.70;99.90;21.70;101560.00;;;;5023071;28;20237;-68
2022/09/25 10:16:55;;;;;;;0.10;0.10;;;21.00;99.90;21.80;101588.00;;;;5072264;28;20667;-68
2022/09/25 10:19:30;;;;;;;0.25;0.25;;;20.90;99.90;22.60;101586.00;;;;5072004;28;20200;-68
2022/09/25 10:33:37;;;;;;;0.10;0.10;;;20.40;99.90;21.60;101575.00;;;;5070480;28;20590;-69
2022/09/25 10:36:15;;;;;;;0.10;0.10;;;20.80;99.90;21.00;101546.00;;;;5066591;28;20246;-69
2022/09/25 10:38:48;;;;;;;0.10;0.10;;;20.50;99.90;20.20;101623.00;;;;5049077;28;20552;-68
2022/09/25 10:41:23;;;;;;;0.10;0.10;;;19.80;99.90;20.50;101605.00;;;;5065827;28;20205;-68
2022/09/25 10:44:20;;;;;;;0.10;0.10;;;19.60;99.90;20.60;101529.00;;;;5065015;28;20205;-68
2022/09/25 10:50:46;;;;;;;0.20;0.20;;;19.90;99.90;22.60;101557.00;;;;5049515;28;20293;-69
2022/09/25 10:53:29;;;;;;;0.17;0.17;;;21.00;99.90;23.00;101545.00;;;;5064065;28;20559;-67
2022/09/25 10:56:34;;;;;;;0.10;0.10;;;21.60;99.90;22.80;101555.00;;;;5065495;28;20178;-67
2022/09/25 10:59:02;;;;;;;0.10;0.10;;;21.70;99.90;21.70;101569.00;;;;5049963;28;20233;-66
2022/09/25 11:01:38;;;;;;;0.10;0.10;;;21.20;99.90;21.20;101565.00;;;;5050111;28;20182;-67
2022/09/25 11:04:30;;;;;;;0.30;0.30;;;20.50;99.90;19.80;101591.00;;;;5065049;28;20190;-67
2022/09/25 11:07:03;;;;;;;0.10;0.10;;;19.50;99.90;20.00;101589.00;;;;5048529;28;20199;-67
2022/09/25 11:09:35;;;;;;;0.20;0.20;;;19.20;99.90;19.80;101575.00;;;;5065283;28;20207;-67
2022/09/25 11:12:13;;;;;;;0.30;0.30;;;19.10;99.90;20.20;101573.00;;;;5064721;28;20200;-65
2022/09/25 11:14:57;;;;;;;0.10;0.10;;;19.20;99.90;19.70;101559.00;;;;5065481;28;20181;-66
2022/09/25 11:17:47;;;;;;;0.20;0.20;;;19.20;99.90;20.60;101507.00;;;;5064693;28;20206;-66
2022/09/25 11:20:31;;;;;;;0.10;0.10;;;19.40;99.90;21.80;101551.00;;;;5064765;28;20214;-67
2022/09/25 11:23:28;;;;;;;0.10;0.10;;;20.40;99.90;22.60;101545.00;;;;5048500;28;20233;-67
2022/09/25 11:26:30;;;;;;;0.22;0.22;;;21.20;99.90;22.70;101540.00;;;;5064648;28;20273;-67
2022/09/25 11:29:21;;;;;;;0.10;0.10;;;21.50;99.90;21.90;101558.00;;;;5047822;28;20194;-66
2022/09/25 11:32:21;;;;;;;0.10;0.10;;;21.20;99.90;22.50;101537.00;;;;5049551;28;20242;-67
2022/09/25 11:35:36;;;;;;;0.10;0.10;;;21.40;99.90;22.90;101523.00;;;;5049498;28;20186;-67
2022/09/25 11:41:10;;;;;;;0.10;0.10;;;21.70;99.90;22.80;101506.00;;;;5049505;28;20178;-67
2022/09/25 11:41:30;;;;;;;0.28;0.28;;;21.80;99.90;22.30;101526.00;;;;5049060;28;20280;-66
2022/09/25 11:44:30;;;;;;;0.10;0.10;;;21.60;99.90;21.50;101496.00;;;;5028529;28;20616;-67
2022/09/25 11:47:21;;;;;;;0.10;0.10;;;21.50;99.90;20.90;101561.00;;;;5035240;28;20159;-67
2022/09/25 11:49:57;;;;;;;0.10;0.10;;;20.40;99.90;20.30;101541.00;;;;5051609;28;20162;-67
2022/09/25 11:52:50;;;;;;;0.10;0.10;;;20.20;99.90;19.80;101561.00;;;;5050728;28;20193;-67
2022/09/25 11:55:36;;;;;;;0.10;0.10;;;19.40;99.90;19.90;101567.00;;;;5035340;28;20198;-66
2022/09/25 11:58:44;;;;;;;0.10;0.10;;;19.40;99.90;19.70;101574.00;;;;5051350;28;20668;-67
2022/09/25 12:01:22;;;;;;;0.10;0.10;;;18.90;99.90;20.70;101548.00;;;;5035714;28;20205;-67
2022/09/25 12:04:11;;;;;;;0.20;0.20;;;19.40;99.90;20.90;101498.00;;;;5035917;28;20170;-66